sensor_id;sensor_type;location;lat;lon;timestamp;P1;durP1;ratioP1;P2;durP2;ratioP2
52674;SDS011;38569;52.722;6.440;2023-11-18T00:01:31;44.17;;;21.77;;
52674;SDS011;38569;52.722;6.440;2023-11-18T00:04:00;37.72;;;19.95;;
52674;SDS011;38569;52.722;6.440;2023-11-18T00:06:26;28.98;;;20.00;;
52674;SDS011;38569;52.722;6.440;2023-11-18T00:08:51;43.85;;;22.73;;
52674;SDS011;38569;52.722;6.440;2023-11-18T00:11:17;35.35;;;20.00;;
52674;SDS011;38569;52.722;6.440;2023-11-18T00:13:43;38.67;;;22.70;;
52674;SDS011;38569;52.722;6.440;2023-11-18T00:16:09;35.97;;;21.73;;
52674;SDS011;38569;52.722;6.440;2023-11-18T00:18:39;47.05;;;24.13;;
52674;SDS011;38569;52.722;6.440;2023-11-18T00:21:05;46.50;;;21.30;;
52674;SDS011;38569;52.722;6.440;2023-11-18T00:23:32;46.47;;;22.98;;
52674;SDS011;38569;52.722;6.440;2023-11-18T00:25:59;52.45;;;20.92;;
52674;SDS011;38569;52.722;6.440;2023-11-18T00:28:24;57.83;;;25.83;;
52674;SDS011;38569;52.722;6.440;2023-11-18T00:30:50;41.42;;;20.13;;
52674;SDS011;38569;52.722;6.440;2023-11-18T00:33:16;55.70;;;23.20;;
52674;SDS011;38569;52.722;6.440;2023-11-18T00:35:41;73.25;;;27.77;;
52674;SDS011;38569;52.722;6.440;2023-11-18T00:38:08;37.50;;;20.60;;
52674;SDS011;38569;52.722;6.440;2023-11-18T00:40:35;62.83;;;22.73;;
52674;SDS011;38569;52.722;6.440;2023-11-18T00:43:01;63.58;;;24.77;;
52674;SDS011;38569;52.722;6.440;2023-11-18T00:45:27;50.08;;;20.83;;
52674;SDS011;38569;52.722;6.440;2023-11-18T00:47:54;47.17;;;21.88;;
52674;SDS011;38569;52.722;6.440;2023-11-18T00:50:19;56.28;;;23.55;;
52674;SDS011;38569;52.722;6.440;2023-11-18T00:52:45;58.38;;;25.65;;
52674;SDS011;38569;52.722;6.440;2023-11-18T00:55:14;66.15;;;23.92;;
52674;SDS011;38569;52.722;6.440;2023-11-18T00:57:43;89.82;;;28.50;;
52674;SDS011;38569;52.722;6.440;2023-11-18T01:00:13;57.17;;;23.13;;
52674;SDS011;38569;52.722;6.440;2023-11-18T01:02:41;60.47;;;22.25;;
52674;SDS011;38569;52.722;6.440;2023-11-18T01:05:08;60.17;;;21.98;;
52674;SDS011;38569;52.722;6.440;2023-11-18T01:07:35;58.38;;;22.33;;
52674;SDS011;38569;52.722;6.440;2023-11-18T01:10:02;64.97;;;23.38;;
52674;SDS011;38569;52.722;6.440;2023-11-18T01:12:28;69.20;;;22.25;;
52674;SDS011;38569;52.722;6.440;2023-11-18T01:14:54;69.95;;;20.83;;
52674;SDS011;38569;52.722;6.440;2023-11-18T01:17:20;96.50;;;25.40;;
52674;SDS011;38569;52.722;6.440;2023-11-18T01:19:47;88.35;;;23.95;;
52674;SDS011;38569;52.722;6.440;2023-11-18T01:22:12;129.38;;;33.40;;
52674;SDS011;38569;52.722;6.440;2023-11-18T01:24:38;102.85;;;25.25;;
52674;SDS011;38569;52.722;6.440;2023-11-18T01:27:04;83.80;;;21.98;;
52674;SDS011;38569;52.722;6.440;2023-11-18T01:29:30;104.97;;;25.63;;
52674;SDS011;38569;52.722;6.440;2023-11-18T01:31:56;94.45;;;25.38;;
52674;SDS011;38569;52.722;6.440;2023-11-18T01:34:22;102.60;;;24.67;;
52674;SDS011;38569;52.722;6.440;2023-11-18T01:36:48;96.47;;;25.95;;
52674;SDS011;38569;52.722;6.440;2023-11-18T01:39:15;124.35;;;32.22;;
52674;SDS011;38569;52.722;6.440;2023-11-18T01:41:42;99.80;;;23.77;;
52674;SDS011;38569;52.722;6.440;2023-11-18T01:44:09;109.10;;;27.00;;
52674;SDS011;38569;52.722;6.440;2023-11-18T01:46:35;87.05;;;26.48;;
52674;SDS011;38569;52.722;6.440;2023-11-18T01:49:02;113.90;;;27.98;;
52674;SDS011;38569;52.722;6.440;2023-11-18T01:51:29;111.20;;;25.95;;
52674;SDS011;38569;52.722;6.440;2023-11-18T01:53:55;115.10;;;25.77;;
52674;SDS011;38569;52.722;6.440;2023-11-18T01:56:24;107.75;;;25.17;;
52674;SDS011;38569;52.722;6.440;2023-11-18T01:58:52;133.38;;;29.42;;
52674;SDS011;38569;52.722;6.440;2023-11-18T02:01:18;94.75;;;28.05;;
52674;SDS011;38569;52.722;6.440;2023-11-18T02:03:44;101.88;;;26.27;;
52674;SDS011;38569;52.722;6.440;2023-11-18T02:06:12;100.47;;;28.33;;
52674;SDS011;38569;52.722;6.440;2023-11-18T02:08:38;84.10;;;26.80;;
52674;SDS011;38569;52.722;6.440;2023-11-18T02:14:19;92.53;;;25.98;;
52674;SDS011;38569;52.722;6.440;2023-11-18T02:16:49;122.57;;;28.23;;
52674;SDS011;38569;52.722;6.440;2023-11-18T02:19:21;97.93;;;24.90;;
52674;SDS011;38569;52.722;6.440;2023-11-18T02:21:49;104.22;;;28.25;;
52674;SDS011;38569;52.722;6.440;2023-11-18T02:24:28;102.90;;;26.20;;
52674;SDS011;38569;52.722;6.440;2023-11-18T02:27:06;73.40;;;25.38;;
52674;SDS011;38569;52.722;6.440;2023-11-18T02:29:36;93.65;;;26.83;;
52674;SDS011;38569;52.722;6.440;2023-11-18T02:32:05;109.53;;;31.67;;
52674;SDS011;38569;52.722;6.440;2023-11-18T02:34:40;102.97;;;29.50;;
52674;SDS011;38569;52.722;6.440;2023-11-18T02:37:13;149.30;;;39.25;;
52674;SDS011;38569;52.722;6.440;2023-11-18T02:39:40;72.03;;;25.83;;
52674;SDS011;38569;52.722;6.440;2023-11-18T02:42:10;86.35;;;29.02;;
52674;SDS011;38569;52.722;6.440;2023-11-18T02:44:38;65.50;;;27.40;;
52674;SDS011;38569;52.722;6.440;2023-11-18T02:47:05;74.82;;;27.65;;
52674;SDS011;38569;52.722;6.440;2023-11-18T02:49:31;76.18;;;29.50;;
52674;SDS011;38569;52.722;6.440;2023-11-18T02:51:59;113.00;;;36.58;;
52674;SDS011;38569;52.722;6.440;2023-11-18T02:54:24;70.07;;;29.08;;
52674;SDS011;38569;52.722;6.440;2023-11-18T02:56:51;81.13;;;27.15;;
52674;SDS011;38569;52.722;6.440;2023-11-18T02:59:17;95.40;;;30.50;;
52674;SDS011;38569;52.722;6.440;2023-11-18T03:01:43;67.00;;;28.33;;
52674;SDS011;38569;52.722;6.440;2023-11-18T03:04:09;86.72;;;29.73;;
52674;SDS011;38569;52.722;6.440;2023-11-18T03:06:35;86.20;;;29.55;;
52674;SDS011;38569;52.722;6.440;2023-11-18T03:09:01;132.75;;;36.20;;
52674;SDS011;38569;52.722;6.440;2023-11-18T03:11:28;80.40;;;28.13;;
52674;SDS011;38569;52.722;6.440;2023-11-18T03:13:58;230.52;;;46.58;;
52674;SDS011;38569;52.722;6.440;2023-11-18T03:16:24;126.15;;;32.22;;
52674;SDS011;38569;52.722;6.440;2023-11-18T03:18:50;121.85;;;31.02;;
52674;SDS011;38569;52.722;6.440;2023-11-18T03:21:16;114.32;;;30.58;;
52674;SDS011;38569;52.722;6.440;2023-11-18T03:23:44;80.18;;;28.73;;
52674;SDS011;38569;52.722;6.440;2023-11-18T03:26:10;133.15;;;34.30;;
52674;SDS011;38569;52.722;6.440;2023-11-18T03:28:36;83.80;;;28.63;;
52674;SDS011;38569;52.722;6.440;2023-11-18T03:31:06;111.93;;;31.88;;
52674;SDS011;38569;52.722;6.440;2023-11-18T03:33:32;90.80;;;33.78;;
52674;SDS011;38569;52.722;6.440;2023-11-18T03:35:58;114.82;;;30.65;;
52674;SDS011;38569;52.722;6.440;2023-11-18T03:38:24;97.07;;;29.08;;
52674;SDS011;38569;52.722;6.440;2023-11-18T03:40:50;104.30;;;32.83;;
52674;SDS011;38569;52.722;6.440;2023-11-18T03:43:17;123.80;;;31.60;;
52674;SDS011;38569;52.722;6.440;2023-11-18T03:45:43;113.57;;;30.23;;
52674;SDS011;38569;52.722;6.440;2023-11-18T03:48:09;112.60;;;33.33;;
52674;SDS011;38569;52.722;6.440;2023-11-18T03:50:39;96.18;;;31.38;;
52674;SDS011;38569;52.722;6.440;2023-11-18T03:53:05;98.65;;;33.58;;
52674;SDS011;38569;52.722;6.440;2023-11-18T03:55:31;104.00;;;32.17;;
52674;SDS011;38569;52.722;6.440;2023-11-18T03:57:57;92.35;;;31.83;;
52674;SDS011;38569;52.722;6.440;2023-11-18T04:00:22;82.30;;;31.40;;
52674;SDS011;38569;52.722;6.440;2023-11-18T04:02:58;92.72;;;31.88;;
52674;SDS011;38569;52.722;6.440;2023-11-18T04:05:24;94.50;;;35.58;;
52674;SDS011;38569;52.722;6.440;2023-11-18T04:07:50;95.97;;;34.28;;
52674;SDS011;38569;52.722;6.440;2023-11-18T04:10:16;96.85;;;33.47;;
52674;SDS011;38569;52.722;6.440;2023-11-18T04:12:43;78.70;;;33.20;;
52674;SDS011;38569;52.722;6.440;2023-11-18T04:15:12;100.32;;;36.83;;
52674;SDS011;38569;52.722;6.440;2023-11-18T04:17:38;84.32;;;37.03;;
52674;SDS011;38569;52.722;6.440;2023-11-18T04:20:04;99.00;;;34.85;;
52674;SDS011;38569;52.722;6.440;2023-11-18T04:22:37;76.88;;;33.25;;
52674;SDS011;38569;52.722;6.440;2023-11-18T04:25:04;83.95;;;36.60;;
52674;SDS011;38569;52.722;6.440;2023-11-18T04:27:31;107.10;;;40.17;;
52674;SDS011;38569;52.722;6.440;2023-11-18T04:29:57;79.15;;;34.72;;
52674;SDS011;38569;52.722;6.440;2023-11-18T04:32:23;83.18;;;37.40;;
52674;SDS011;38569;52.722;6.440;2023-11-18T04:34:48;68.03;;;34.55;;
52674;SDS011;38569;52.722;6.440;2023-11-18T04:37:16;66.95;;;34.13;;
52674;SDS011;38569;52.722;6.440;2023-11-18T04:39:42;71.95;;;36.90;;
52674;SDS011;38569;52.722;6.440;2023-11-18T04:42:08;71.55;;;35.65;;
52674;SDS011;38569;52.722;6.440;2023-11-18T04:44:34;69.50;;;37.75;;
52674;SDS011;38569;52.722;6.440;2023-11-18T04:46:59;63.13;;;34.47;;
52674;SDS011;38569;52.722;6.440;2023-11-18T04:49:26;79.10;;;37.17;;
52674;SDS011;38569;52.722;6.440;2023-11-18T04:51:52;73.85;;;36.10;;
52674;SDS011;38569;52.722;6.440;2023-11-18T04:54:17;88.53;;;39.08;;
52674;SDS011;38569;52.722;6.440;2023-11-18T04:56:44;75.65;;;37.03;;
52674;SDS011;38569;52.722;6.440;2023-11-18T04:59:11;113.70;;;38.80;;
52674;SDS011;38569;52.722;6.440;2023-11-18T05:01:36;79.28;;;37.78;;
52674;SDS011;38569;52.722;6.440;2023-11-18T05:04:03;177.75;;;51.03;;
52674;SDS011;38569;52.722;6.440;2023-11-18T05:06:29;78.95;;;37.40;;
52674;SDS011;38569;52.722;6.440;2023-11-18T05:08:54;79.85;;;37.03;;
52674;SDS011;38569;52.722;6.440;2023-11-18T05:11:20;85.38;;;38.00;;
52674;SDS011;38569;52.722;6.440;2023-11-18T05:13:45;81.30;;;38.95;;
52674;SDS011;38569;52.722;6.440;2023-11-18T05:16:11;85.63;;;37.00;;
52674;SDS011;38569;52.722;6.440;2023-11-18T05:18:37;82.05;;;37.33;;
52674;SDS011;38569;52.722;6.440;2023-11-18T05:21:04;88.60;;;36.20;;
52674;SDS011;38569;52.722;6.440;2023-11-18T05:23:30;98.47;;;37.75;;
52674;SDS011;38569;52.722;6.440;2023-11-18T05:25:57;220.38;;;51.13;;
52674;SDS011;38569;52.722;6.440;2023-11-18T05:28:26;105.88;;;38.83;;
52674;SDS011;38569;52.722;6.440;2023-11-18T05:30:52;112.07;;;37.75;;
52674;SDS011;38569;52.722;6.440;2023-11-18T05:33:20;129.65;;;40.72;;
52674;SDS011;38569;52.722;6.440;2023-11-18T05:35:46;110.53;;;36.53;;
52674;SDS011;38569;52.722;6.440;2023-11-18T05:38:18;122.22;;;37.75;;
52674;SDS011;38569;52.722;6.440;2023-11-18T05:40:47;97.82;;;36.13;;
52674;SDS011;38569;52.722;6.440;2023-11-18T05:43:31;119.45;;;34.83;;
52674;SDS011;38569;52.722;6.440;2023-11-18T05:46:06;121.50;;;38.08;;
52674;SDS011;38569;52.722;6.440;2023-11-18T05:48:49;135.37;;;39.50;;
52674;SDS011;38569;52.722;6.440;2023-11-18T05:51:18;210.10;;;46.85;;
52674;SDS011;38569;52.722;6.440;2023-11-18T05:53:48;107.28;;;37.35;;
52674;SDS011;38569;52.722;6.440;2023-11-18T05:56:15;115.57;;;38.17;;
52674;SDS011;38569;52.722;6.440;2023-11-18T05:58:42;107.53;;;34.42;;
52674;SDS011;38569;52.722;6.440;2023-11-18T06:01:11;104.38;;;36.50;;
52674;SDS011;38569;52.722;6.440;2023-11-18T06:03:44;109.88;;;35.85;;
52674;SDS011;38569;52.722;6.440;2023-11-18T06:06:11;96.15;;;35.20;;
52674;SDS011;38569;52.722;6.440;2023-11-18T06:08:39;125.20;;;38.85;;
52674;SDS011;38569;52.722;6.440;2023-11-18T06:11:09;178.25;;;44.22;;
52674;SDS011;38569;52.722;6.440;2023-11-18T06:13:46;136.65;;;38.97;;
52674;SDS011;38569;52.722;6.440;2023-11-18T06:16:19;119.88;;;37.83;;
52674;SDS011;38569;52.722;6.440;2023-11-18T06:18:53;141.52;;;37.53;;
52674;SDS011;38569;52.722;6.440;2023-11-18T06:21:21;129.02;;;36.58;;
52674;SDS011;38569;52.722;6.440;2023-11-18T06:23:50;153.20;;;40.40;;
52674;SDS011;38569;52.722;6.440;2023-11-18T06:26:16;130.25;;;38.25;;
52674;SDS011;38569;52.722;6.440;2023-11-18T06:28:46;113.13;;;37.28;;
52674;SDS011;38569;52.722;6.440;2023-11-18T06:31:16;185.07;;;42.80;;
52674;SDS011;38569;52.722;6.440;2023-11-18T06:33:43;127.10;;;39.88;;
52674;SDS011;38569;52.722;6.440;2023-11-18T06:36:09;204.35;;;47.95;;
52674;SDS011;38569;52.722;6.440;2023-11-18T06:38:43;107.35;;;37.55;;
52674;SDS011;38569;52.722;6.440;2023-11-18T06:41:10;161.52;;;44.38;;
52674;SDS011;38569;52.722;6.440;2023-11-18T06:43:41;114.72;;;40.78;;
52674;SDS011;38569;52.722;6.440;2023-11-18T06:46:22;91.78;;;36.70;;
52674;SDS011;38569;52.722;6.440;2023-11-18T06:48:49;111.15;;;39.00;;
52674;SDS011;38569;52.722;6.440;2023-11-18T06:51:19;118.32;;;39.58;;
52674;SDS011;38569;52.722;6.440;2023-11-18T06:53:56;101.43;;;38.25;;
52674;SDS011;38569;52.722;6.440;2023-11-18T06:56:25;101.38;;;39.55;;
52674;SDS011;38569;52.722;6.440;2023-11-18T06:58:52;177.70;;;50.40;;
52674;SDS011;38569;52.722;6.440;2023-11-18T07:01:18;105.43;;;39.63;;
52674;SDS011;38569;52.722;6.440;2023-11-18T07:03:45;109.88;;;37.47;;
52674;SDS011;38569;52.722;6.440;2023-11-18T07:06:16;133.18;;;42.58;;
52674;SDS011;38569;52.722;6.440;2023-11-18T07:08:50;93.72;;;39.92;;
52674;SDS011;38569;52.722;6.440;2023-11-18T07:11:16;131.63;;;43.28;;
52674;SDS011;38569;52.722;6.440;2023-11-18T07:13:43;163.73;;;46.25;;
52674;SDS011;38569;52.722;6.440;2023-11-18T07:16:09;96.03;;;39.25;;
52674;SDS011;38569;52.722;6.440;2023-11-18T07:18:35;105.45;;;40.22;;
52674;SDS011;38569;52.722;6.440;2023-11-18T07:21:02;105.97;;;41.22;;
52674;SDS011;38569;52.722;6.440;2023-11-18T07:23:30;99.43;;;39.15;;
52674;SDS011;38569;52.722;6.440;2023-11-18T07:25:59;113.22;;;40.15;;
52674;SDS011;38569;52.722;6.440;2023-11-18T07:28:25;110.93;;;44.40;;
52674;SDS011;38569;52.722;6.440;2023-11-18T07:30:51;113.78;;;44.03;;
52674;SDS011;38569;52.722;6.440;2023-11-18T07:33:19;114.80;;;41.65;;
52674;SDS011;38569;52.722;6.440;2023-11-18T07:35:45;102.57;;;41.97;;
52674;SDS011;38569;52.722;6.440;2023-11-18T07:38:13;135.55;;;48.60;;
52674;SDS011;38569;52.722;6.440;2023-11-18T07:40:39;93.90;;;40.60;;
52674;SDS011;38569;52.722;6.440;2023-11-18T07:43:14;119.03;;;42.72;;
52674;SDS011;38569;52.722;6.440;2023-11-18T07:45:40;108.72;;;44.03;;
52674;SDS011;38569;52.722;6.440;2023-11-18T07:48:10;107.88;;;40.38;;
52674;SDS011;38569;52.722;6.440;2023-11-18T07:50:42;187.35;;;52.88;;
52674;SDS011;38569;52.722;6.440;2023-11-18T07:53:12;129.48;;;47.35;;
52674;SDS011;38569;52.722;6.440;2023-11-18T07:55:38;161.93;;;48.03;;
52674;SDS011;38569;52.722;6.440;2023-11-18T07:58:10;111.93;;;42.67;;
52674;SDS011;38569;52.722;6.440;2023-11-18T08:00:40;103.57;;;43.20;;
52674;SDS011;38569;52.722;6.440;2023-11-18T08:03:07;98.82;;;41.42;;
52674;SDS011;38569;52.722;6.440;2023-11-18T08:05:37;169.35;;;51.30;;
52674;SDS011;38569;52.722;6.440;2023-11-18T08:08:05;119.13;;;42.90;;
52674;SDS011;38569;52.722;6.440;2023-11-18T08:10:32;135.50;;;46.97;;
52674;SDS011;38569;52.722;6.440;2023-11-18T08:13:02;128.75;;;42.88;;
52674;SDS011;38569;52.722;6.440;2023-11-18T08:15:34;121.45;;;45.05;;
52674;SDS011;38569;52.722;6.440;2023-11-18T08:18:03;129.15;;;46.25;;
52674;SDS011;38569;52.722;6.440;2023-11-18T08:20:29;150.70;;;46.08;;
52674;SDS011;38569;52.722;6.440;2023-11-18T08:22:55;109.05;;;45.13;;
52674;SDS011;38569;52.722;6.440;2023-11-18T08:25:21;87.32;;;41.92;;
52674;SDS011;38569;52.722;6.440;2023-11-18T08:27:47;98.57;;;41.42;;
52674;SDS011;38569;52.722;6.440;2023-11-18T08:30:13;94.05;;;40.50;;
52674;SDS011;38569;52.722;6.440;2023-11-18T08:32:43;151.90;;;52.83;;
52674;SDS011;38569;52.722;6.440;2023-11-18T08:35:13;98.60;;;43.85;;
52674;SDS011;38569;52.722;6.440;2023-11-18T08:37:42;119.03;;;45.22;;
52674;SDS011;38569;52.722;6.440;2023-11-18T08:40:09;128.45;;;48.53;;
52674;SDS011;38569;52.722;6.440;2023-11-18T08:42:43;100.70;;;44.28;;
52674;SDS011;38569;52.722;6.440;2023-11-18T08:45:13;143.10;;;50.17;;
52674;SDS011;38569;52.722;6.440;2023-11-18T08:47:44;150.40;;;51.83;;
52674;SDS011;38569;52.722;6.440;2023-11-18T08:50:13;123.53;;;47.47;;
52674;SDS011;38569;52.722;6.440;2023-11-18T08:52:41;118.03;;;48.45;;
52674;SDS011;38569;52.722;6.440;2023-11-18T08:55:11;107.35;;;44.13;;
52674;SDS011;38569;52.722;6.440;2023-11-18T08:57:42;124.95;;;48.30;;
52674;SDS011;38569;52.722;6.440;2023-11-18T09:00:17;185.40;;;52.33;;
52674;SDS011;38569;52.722;6.440;2023-11-18T09:03:02;106.10;;;43.92;;
52674;SDS011;38569;52.722;6.440;2023-11-18T09:05:32;129.32;;;45.38;;
52674;SDS011;38569;52.722;6.440;2023-11-18T09:07:58;124.75;;;47.35;;
52674;SDS011;38569;52.722;6.440;2023-11-18T09:10:27;124.85;;;46.58;;
52674;SDS011;38569;52.722;6.440;2023-11-18T09:12:55;109.18;;;43.40;;
52674;SDS011;38569;52.722;6.440;2023-11-18T09:15:22;104.82;;;45.72;;
52674;SDS011;38569;52.722;6.440;2023-11-18T09:17:48;100.43;;;44.95;;
52674;SDS011;38569;52.722;6.440;2023-11-18T09:20:14;104.50;;;45.65;;
52674;SDS011;38569;52.722;6.440;2023-11-18T09:22:47;128.30;;;45.20;;
52674;SDS011;38569;52.722;6.440;2023-11-18T09:25:13;110.45;;;45.58;;
52674;SDS011;38569;52.722;6.440;2023-11-18T09:27:39;113.85;;;48.10;;
52674;SDS011;38569;52.722;6.440;2023-11-18T09:30:07;89.82;;;44.40;;
52674;SDS011;38569;52.722;6.440;2023-11-18T09:32:41;86.15;;;42.45;;
52674;SDS011;38569;52.722;6.440;2023-11-18T09:35:08;95.53;;;45.20;;
52674;SDS011;38569;52.722;6.440;2023-11-18T09:37:34;114.13;;;51.88;;
52674;SDS011;38569;52.722;6.440;2023-11-18T09:40:02;99.80;;;48.42;;
52674;SDS011;38569;52.722;6.440;2023-11-18T09:42:45;102.60;;;46.55;;
52674;SDS011;38569;52.722;6.440;2023-11-18T09:45:11;109.63;;;50.97;;
52674;SDS011;38569;52.722;6.440;2023-11-18T09:47:42;96.30;;;48.10;;
52674;SDS011;38569;52.722;6.440;2023-11-18T09:50:12;110.00;;;51.15;;
52674;SDS011;38569;52.722;6.440;2023-11-18T09:52:47;100.88;;;49.22;;
52674;SDS011;38569;52.722;6.440;2023-11-18T09:55:28;103.28;;;50.80;;
52674;SDS011;38569;52.722;6.440;2023-11-18T09:58:06;107.88;;;49.10;;
52674;SDS011;38569;52.722;6.440;2023-11-18T10:03:09;95.60;;;48.40;;
52674;SDS011;38569;52.722;6.440;2023-11-18T10:05:40;98.20;;;49.17;;
52674;SDS011;38569;52.722;6.440;2023-11-18T10:08:07;94.22;;;51.75;;
52674;SDS011;38569;52.722;6.440;2023-11-18T10:10:33;87.38;;;48.83;;
52674;SDS011;38569;52.722;6.440;2023-11-18T10:13:03;91.63;;;46.53;;
52674;SDS011;38569;52.722;6.440;2023-11-18T10:15:46;76.83;;;46.77;;
52674;SDS011;38569;52.722;6.440;2023-11-18T10:18:17;75.75;;;46.03;;
52674;SDS011;38569;52.722;6.440;2023-11-18T10:20:49;77.72;;;46.92;;
52674;SDS011;38569;52.722;6.440;2023-11-18T10:23:19;65.88;;;41.35;;
52674;SDS011;38569;52.722;6.440;2023-11-18T10:25:47;70.68;;;40.38;;
52674;SDS011;38569;52.722;6.440;2023-11-18T10:28:27;69.25;;;39.78;;
52674;SDS011;38569;52.722;6.440;2023-11-18T10:30:54;67.50;;;38.58;;
52674;SDS011;38569;52.722;6.440;2023-11-18T10:33:28;62.67;;;35.15;;
52674;SDS011;38569;52.722;6.440;2023-11-18T10:35:56;52.42;;;31.10;;
52674;SDS011;38569;52.722;6.440;2023-11-18T10:38:22;55.28;;;32.72;;
52674;SDS011;38569;52.722;6.440;2023-11-18T10:40:54;52.70;;;30.10;;
52674;SDS011;38569;52.722;6.440;2023-11-18T10:43:21;49.95;;;29.75;;
52674;SDS011;38569;52.722;6.440;2023-11-18T10:46:07;50.83;;;29.55;;
52674;SDS011;38569;52.722;6.440;2023-11-18T10:48:40;47.58;;;28.42;;
52674;SDS011;38569;52.722;6.440;2023-11-18T10:51:10;55.33;;;29.63;;
52674;SDS011;38569;52.722;6.440;2023-11-18T10:53:37;49.40;;;26.98;;
52674;SDS011;38569;52.722;6.440;2023-11-18T10:56:18;51.08;;;26.77;;
52674;SDS011;38569;52.722;6.440;2023-11-18T10:59:11;45.30;;;27.08;;
52674;SDS011;38569;52.722;6.440;2023-11-18T11:01:41;45.88;;;26.08;;
52674;SDS011;38569;52.722;6.440;2023-11-18T11:04:17;40.75;;;25.35;;
52674;SDS011;38569;52.722;6.440;2023-11-18T11:06:46;46.30;;;24.02;;
52674;SDS011;38569;52.722;6.440;2023-11-18T11:09:21;38.33;;;22.73;;
52674;SDS011;38569;52.722;6.440;2023-11-18T11:12:00;43.95;;;23.35;;
52674;SDS011;38569;52.722;6.440;2023-11-18T11:14:42;50.30;;;26.48;;
52674;SDS011;38569;52.722;6.440;2023-11-18T11:17:17;41.55;;;22.38;;
52674;SDS011;38569;52.722;6.440;2023-11-18T11:20:04;46.60;;;23.48;;
52674;SDS011;38569;52.722;6.440;2023-11-18T11:28:22;37.90;;;22.40;;
52674;SDS011;38569;52.722;6.440;2023-11-18T11:30:52;43.40;;;24.30;;
52674;SDS011;38569;52.722;6.440;2023-11-18T11:33:42;36.07;;;22.93;;
52674;SDS011;38569;52.722;6.440;2023-11-18T11:36:12;43.00;;;23.05;;
52674;SDS011;38569;52.722;6.440;2023-11-18T11:38:49;38.75;;;22.67;;
52674;SDS011;38569;52.722;6.440;2023-11-18T11:41:17;41.55;;;23.45;;
52674;SDS011;38569;52.722;6.440;2023-11-18T11:43:51;37.53;;;22.10;;
52674;SDS011;38569;52.722;6.440;2023-11-18T11:46:21;41.45;;;21.27;;
52674;SDS011;38569;52.722;6.440;2023-11-18T11:48:49;40.92;;;21.92;;
52674;SDS011;38569;52.722;6.440;2023-11-18T11:54:01;38.50;;;21.85;;
52674;SDS011;38569;52.722;6.440;2023-11-18T11:56:46;41.63;;;23.15;;
52674;SDS011;38569;52.722;6.440;2023-11-18T11:59:35;40.63;;;24.15;;
52674;SDS011;38569;52.722;6.440;2023-11-18T12:02:02;38.75;;;20.23;;
52674;SDS011;38569;52.722;6.440;2023-11-18T12:04:33;40.78;;;22.65;;
52674;SDS011;38569;52.722;6.440;2023-11-18T12:07:03;45.28;;;24.17;;
52674;SDS011;38569;52.722;6.440;2023-11-18T12:09:30;44.60;;;24.00;;
52674;SDS011;38569;52.722;6.440;2023-11-18T12:12:03;43.58;;;23.40;;
52674;SDS011;38569;52.722;6.440;2023-11-18T12:14:48;41.60;;;21.83;;
52674;SDS011;38569;52.722;6.440;2023-11-18T12:17:15;49.80;;;25.33;;
52674;SDS011;38569;52.722;6.440;2023-11-18T12:19:46;48.92;;;27.23;;
52674;SDS011;38569;52.722;6.440;2023-11-18T12:22:17;49.50;;;23.65;;
52674;SDS011;38569;52.722;6.440;2023-11-18T12:27:12;47.67;;;23.55;;
52674;SDS011;38569;52.722;6.440;2023-11-18T12:29:42;55.72;;;26.23;;
52674;SDS011;38569;52.722;6.440;2023-11-18T12:32:10;52.97;;;25.92;;
52674;SDS011;38569;52.722;6.440;2023-11-18T12:34:51;59.40;;;28.60;;
52674;SDS011;38569;52.722;6.440;2023-11-18T12:48:31;42.08;;;21.00;;
52674;SDS011;38569;52.722;6.440;2023-11-18T12:50:57;53.47;;;23.23;;
52674;SDS011;38569;52.722;6.440;2023-11-18T12:53:25;47.97;;;23.00;;
52674;SDS011;38569;52.722;6.440;2023-11-18T12:55:53;54.25;;;24.98;;
52674;SDS011;38569;52.722;6.440;2023-11-18T12:58:19;52.22;;;23.88;;
52674;SDS011;38569;52.722;6.440;2023-11-18T13:00:45;46.92;;;21.98;;
52674;SDS011;38569;52.722;6.440;2023-11-18T13:03:11;50.30;;;22.38;;
52674;SDS011;38569;52.722;6.440;2023-11-18T13:05:40;48.33;;;23.48;;
52674;SDS011;38569;52.722;6.440;2023-11-18T13:08:08;48.80;;;23.08;;
52674;SDS011;38569;52.722;6.440;2023-11-18T13:10:35;45.53;;;23.05;;
52674;SDS011;38569;52.722;6.440;2023-11-18T13:13:01;49.08;;;22.73;;
52674;SDS011;38569;52.722;6.440;2023-11-18T13:15:30;47.78;;;24.08;;
52674;SDS011;38569;52.722;6.440;2023-11-18T13:20:25;54.78;;;25.85;;
52674;SDS011;38569;52.722;6.440;2023-11-18T13:22:51;47.92;;;24.73;;
52674;SDS011;38569;52.722;6.440;2023-11-18T13:25:24;58.30;;;26.90;;
52674;SDS011;38569;52.722;6.440;2023-11-18T13:27:50;46.85;;;25.23;;
52674;SDS011;38569;52.722;6.440;2023-11-18T13:30:16;54.45;;;24.15;;
52674;SDS011;38569;52.722;6.440;2023-11-18T13:32:43;54.55;;;23.38;;
52674;SDS011;38569;52.722;6.440;2023-11-18T13:35:10;53.30;;;24.50;;
52674;SDS011;38569;52.722;6.440;2023-11-18T13:37:38;111.07;;;27.77;;
52674;SDS011;38569;52.722;6.440;2023-11-18T13:40:07;56.53;;;24.23;;
52674;SDS011;38569;52.722;6.440;2023-11-18T13:42:33;46.40;;;24.75;;
52674;SDS011;38569;52.722;6.440;2023-11-18T13:45:00;48.47;;;24.33;;
52674;SDS011;38569;52.722;6.440;2023-11-18T13:47:37;53.85;;;24.55;;
52674;SDS011;38569;52.722;6.440;2023-11-18T13:50:09;58.03;;;24.70;;
52674;SDS011;38569;52.722;6.440;2023-11-18T13:52:38;53.50;;;24.52;;
52674;SDS011;38569;52.722;6.440;2023-11-18T13:55:05;42.30;;;21.80;;
52674;SDS011;38569;52.722;6.440;2023-11-18T13:57:32;55.75;;;24.92;;
52674;SDS011;38569;52.722;6.440;2023-11-18T13:59:58;49.13;;;25.10;;
52674;SDS011;38569;52.722;6.440;2023-11-18T14:02:24;52.53;;;24.65;;
52674;SDS011;38569;52.722;6.440;2023-11-18T14:04:50;42.22;;;21.45;;
52674;SDS011;38569;52.722;6.440;2023-11-18T14:07:15;39.67;;;19.88;;
52674;SDS011;38569;52.722;6.440;2023-11-18T14:09:42;45.00;;;22.85;;
52674;SDS011;38569;52.722;6.440;2023-11-18T14:12:10;40.05;;;19.83;;
52674;SDS011;38569;52.722;6.440;2023-11-18T14:14:37;37.88;;;19.00;;
52674;SDS011;38569;52.722;6.440;2023-11-18T14:17:06;38.85;;;19.73;;
52674;SDS011;38569;52.722;6.440;2023-11-18T14:19:35;43.22;;;20.33;;
52674;SDS011;38569;52.722;6.440;2023-11-18T14:22:01;37.45;;;19.75;;
52674;SDS011;38569;52.722;6.440;2023-11-18T14:24:34;40.17;;;20.08;;
52674;SDS011;38569;52.722;6.440;2023-11-18T14:27:00;37.95;;;20.05;;
52674;SDS011;38569;52.722;6.440;2023-11-18T14:29:26;44.53;;;21.13;;
52674;SDS011;38569;52.722;6.440;2023-11-18T14:31:54;37.83;;;21.10;;
52674;SDS011;38569;52.722;6.440;2023-11-18T14:34:20;30.52;;;17.55;;
52674;SDS011;38569;52.722;6.440;2023-11-18T14:36:46;31.55;;;16.88;;
52674;SDS011;38569;52.722;6.440;2023-11-18T14:39:11;37.67;;;19.95;;
52674;SDS011;38569;52.722;6.440;2023-11-18T14:41:42;42.63;;;19.92;;
52674;SDS011;38569;52.722;6.440;2023-11-18T14:44:09;32.05;;;17.90;;
52674;SDS011;38569;52.722;6.440;2023-11-18T14:46:36;32.10;;;17.65;;
52674;SDS011;38569;52.722;6.440;2023-11-18T14:49:06;34.28;;;18.30;;
52674;SDS011;38569;52.722;6.440;2023-11-18T14:51:32;28.80;;;17.17;;
52674;SDS011;38569;52.722;6.440;2023-11-18T14:53:58;27.92;;;16.65;;
52674;SDS011;38569;52.722;6.440;2023-11-18T14:56:24;29.35;;;16.80;;